sensor_id;sensor_type;location;lat;lon;timestamp;P1;durP1;ratioP1;P2;durP2;ratioP2
20657;SDS011;10488;50.846;4.078;2023-06-19T00:01:10;5.32;;;3.65;;
20657;SDS011;10488;50.846;4.078;2023-06-19T00:03:36;5.78;;;3.58;;
20657;SDS011;10488;50.846;4.078;2023-06-19T00:06:01;5.35;;;3.88;;
20657;SDS011;10488;50.846;4.078;2023-06-19T00:08:27;4.88;;;3.50;;
20657;SDS011;10488;50.846;4.078;2023-06-19T00:10:54;5.40;;;3.92;;
20657;SDS011;10488;50.846;4.078;2023-06-19T00:13:20;6.18;;;4.03;;
20657;SDS011;10488;50.846;4.078;2023-06-19T00:15:46;7.07;;;4.07;;
20657;SDS011;10488;50.846;4.078;2023-06-19T00:18:12;5.25;;;3.90;;
20657;SDS011;10488;50.846;4.078;2023-06-19T00:20:37;8.88;;;4.10;;
20657;SDS011;10488;50.846;4.078;2023-06-19T00:23:04;7.53;;;4.05;;
20657;SDS011;10488;50.846;4.078;2023-06-19T00:25:31;5.57;;;3.78;;
20657;SDS011;10488;50.846;4.078;2023-06-19T00:27:57;6.40;;;4.15;;
20657;SDS011;10488;50.846;4.078;2023-06-19T00:30:22;6.13;;;4.00;;
20657;SDS011;10488;50.846;4.078;2023-06-19T00:32:48;6.05;;;4.18;;
20657;SDS011;10488;50.846;4.078;2023-06-19T00:35:17;5.15;;;4.10;;
20657;SDS011;10488;50.846;4.078;2023-06-19T00:37:43;7.20;;;3.72;;
20657;SDS011;10488;50.846;4.078;2023-06-19T00:40:12;7.07;;;3.85;;
20657;SDS011;10488;50.846;4.078;2023-06-19T00:42:44;5.30;;;3.65;;
20657;SDS011;10488;50.846;4.078;2023-06-19T00:45:10;6.82;;;3.85;;
20657;SDS011;10488;50.846;4.078;2023-06-19T00:47:36;6.18;;;4.10;;
20657;SDS011;10488;50.846;4.078;2023-06-19T00:50:02;6.75;;;4.05;;
20657;SDS011;10488;50.846;4.078;2023-06-19T00:52:28;8.23;;;4.07;;
20657;SDS011;10488;50.846;4.078;2023-06-19T00:54:53;5.80;;;4.38;;
20657;SDS011;10488;50.846;4.078;2023-06-19T00:57:19;8.60;;;3.85;;
20657;SDS011;10488;50.846;4.078;2023-06-19T00:59:45;6.13;;;3.80;;
20657;SDS011;10488;50.846;4.078;2023-06-19T01:02:11;7.63;;;4.20;;
20657;SDS011;10488;50.846;4.078;2023-06-19T01:04:36;6.93;;;4.32;;
20657;SDS011;10488;50.846;4.078;2023-06-19T01:07:03;7.20;;;4.15;;
20657;SDS011;10488;50.846;4.078;2023-06-19T01:09:37;14.02;;;4.97;;
20657;SDS011;10488;50.846;4.078;2023-06-19T01:12:18;5.70;;;4.65;;
20657;SDS011;10488;50.846;4.078;2023-06-19T01:14:53;11.18;;;4.65;;
20657;SDS011;10488;50.846;4.078;2023-06-19T01:17:22;7.32;;;4.80;;
20657;SDS011;10488;50.846;4.078;2023-06-19T01:19:48;9.63;;;4.78;;
20657;SDS011;10488;50.846;4.078;2023-06-19T01:22:25;11.13;;;5.05;;
20657;SDS011;10488;50.846;4.078;2023-06-19T01:24:54;11.20;;;4.13;;
20657;SDS011;10488;50.846;4.078;2023-06-19T01:27:20;10.07;;;4.57;;
20657;SDS011;10488;50.846;4.078;2023-06-19T01:29:47;13.77;;;4.57;;
20657;SDS011;10488;50.846;4.078;2023-06-19T01:32:24;7.93;;;4.72;;
20657;SDS011;10488;50.846;4.078;2023-06-19T01:34:55;11.30;;;4.95;;
20657;SDS011;10488;50.846;4.078;2023-06-19T01:37:24;9.48;;;4.57;;
20657;SDS011;10488;50.846;4.078;2023-06-19T01:39:52;9.50;;;5.00;;
20657;SDS011;10488;50.846;4.078;2023-06-19T01:42:22;13.40;;;5.00;;
20657;SDS011;10488;50.846;4.078;2023-06-19T01:44:49;9.18;;;5.22;;
20657;SDS011;10488;50.846;4.078;2023-06-19T01:47:16;10.35;;;5.47;;
20657;SDS011;10488;50.846;4.078;2023-06-19T01:49:45;16.75;;;5.50;;
20657;SDS011;10488;50.846;4.078;2023-06-19T01:52:11;9.98;;;5.68;;
20657;SDS011;10488;50.846;4.078;2023-06-19T01:54:38;14.35;;;6.78;;
20657;SDS011;10488;50.846;4.078;2023-06-19T01:57:04;8.23;;;6.22;;
20657;SDS011;10488;50.846;4.078;2023-06-19T01:59:30;9.40;;;5.93;;
20657;SDS011;10488;50.846;4.078;2023-06-19T02:01:55;12.63;;;7.15;;
20657;SDS011;10488;50.846;4.078;2023-06-19T02:04:21;9.70;;;5.95;;
20657;SDS011;10488;50.846;4.078;2023-06-19T02:06:47;12.98;;;5.95;;
20657;SDS011;10488;50.846;4.078;2023-06-19T02:09:12;8.02;;;5.75;;
20657;SDS011;10488;50.846;4.078;2023-06-19T02:11:38;12.55;;;6.75;;
20657;SDS011;10488;50.846;4.078;2023-06-19T02:14:04;12.35;;;6.57;;
20657;SDS011;10488;50.846;4.078;2023-06-19T02:16:29;14.45;;;6.85;;
20657;SDS011;10488;50.846;4.078;2023-06-19T02:18:55;13.98;;;6.07;;
20657;SDS011;10488;50.846;4.078;2023-06-19T02:21:21;12.35;;;7.30;;
20657;SDS011;10488;50.846;4.078;2023-06-19T02:23:47;10.10;;;6.75;;
20657;SDS011;10488;50.846;4.078;2023-06-19T02:26:13;11.95;;;6.93;;
20657;SDS011;10488;50.846;4.078;2023-06-19T02:28:39;11.98;;;6.82;;
20657;SDS011;10488;50.846;4.078;2023-06-19T02:31:04;10.55;;;6.97;;
20657;SDS011;10488;50.846;4.078;2023-06-19T02:33:30;10.35;;;6.32;;
20657;SDS011;10488;50.846;4.078;2023-06-19T02:35:57;12.70;;;6.78;;
20657;SDS011;10488;50.846;4.078;2023-06-19T02:38:26;14.43;;;7.00;;
20657;SDS011;10488;50.846;4.078;2023-06-19T02:40:54;11.25;;;7.18;;
20657;SDS011;10488;50.846;4.078;2023-06-19T02:43:22;8.15;;;6.88;;
20657;SDS011;10488;50.846;4.078;2023-06-19T02:45:48;16.00;;;7.57;;
20657;SDS011;10488;50.846;4.078;2023-06-19T02:48:14;15.75;;;8.27;;
20657;SDS011;10488;50.846;4.078;2023-06-19T02:50:39;9.60;;;7.15;;
20657;SDS011;10488;50.846;4.078;2023-06-19T02:53:05;12.55;;;6.88;;
20657;SDS011;10488;50.846;4.078;2023-06-19T02:55:31;13.25;;;7.65;;
20657;SDS011;10488;50.846;4.078;2023-06-19T02:57:56;10.60;;;7.53;;
20657;SDS011;10488;50.846;4.078;2023-06-19T03:00:22;9.32;;;7.35;;
20657;SDS011;10488;50.846;4.078;2023-06-19T03:02:48;10.10;;;6.93;;
20657;SDS011;10488;50.846;4.078;2023-06-19T03:05:16;7.88;;;7.00;;
20657;SDS011;10488;50.846;4.078;2023-06-19T03:07:41;10.27;;;7.28;;
20657;SDS011;10488;50.846;4.078;2023-06-19T03:10:07;10.95;;;8.18;;
20657;SDS011;10488;50.846;4.078;2023-06-19T03:12:33;11.95;;;7.80;;
20657;SDS011;10488;50.846;4.078;2023-06-19T03:14:59;10.07;;;7.25;;
20657;SDS011;10488;50.846;4.078;2023-06-19T03:17:25;13.25;;;8.10;;
20657;SDS011;10488;50.846;4.078;2023-06-19T03:19:50;10.07;;;7.47;;
20657;SDS011;10488;50.846;4.078;2023-06-19T03:22:17;10.45;;;7.55;;
20657;SDS011;10488;50.846;4.078;2023-06-19T03:24:44;13.40;;;7.47;;
20657;SDS011;10488;50.846;4.078;2023-06-19T03:27:10;12.35;;;7.20;;
20657;SDS011;10488;50.846;4.078;2023-06-19T03:29:35;10.48;;;7.18;;
20657;SDS011;10488;50.846;4.078;2023-06-19T03:32:01;8.82;;;5.97;;
20657;SDS011;10488;50.846;4.078;2023-06-19T03:34:26;10.98;;;6.88;;
20657;SDS011;10488;50.846;4.078;2023-06-19T03:36:52;10.52;;;6.40;;
20657;SDS011;10488;50.846;4.078;2023-06-19T03:39:18;11.70;;;6.70;;
20657;SDS011;10488;50.846;4.078;2023-06-19T03:41:44;10.98;;;7.38;;
20657;SDS011;10488;50.846;4.078;2023-06-19T03:44:09;9.98;;;6.65;;
20657;SDS011;10488;50.846;4.078;2023-06-19T03:46:35;11.52;;;7.20;;
20657;SDS011;10488;50.846;4.078;2023-06-19T03:49:00;8.38;;;6.32;;
20657;SDS011;10488;50.846;4.078;2023-06-19T03:51:27;8.10;;;7.07;;
20657;SDS011;10488;50.846;4.078;2023-06-19T03:53:54;9.85;;;7.07;;
20657;SDS011;10488;50.846;4.078;2023-06-19T03:56:19;9.07;;;6.80;;
20657;SDS011;10488;50.846;4.078;2023-06-19T03:58:45;10.10;;;6.68;;
20657;SDS011;10488;50.846;4.078;2023-06-19T04:01:10;10.60;;;7.65;;
20657;SDS011;10488;50.846;4.078;2023-06-19T04:03:36;10.52;;;7.40;;
20657;SDS011;10488;50.846;4.078;2023-06-19T04:06:02;9.88;;;7.10;;
20657;SDS011;10488;50.846;4.078;2023-06-19T04:08:27;10.73;;;7.20;;
20657;SDS011;10488;50.846;4.078;2023-06-19T04:10:53;11.30;;;7.78;;
20657;SDS011;10488;50.846;4.078;2023-06-19T04:13:19;11.63;;;7.82;;
20657;SDS011;10488;50.846;4.078;2023-06-19T04:15:45;14.50;;;8.98;;
20657;SDS011;10488;50.846;4.078;2023-06-19T04:18:11;10.23;;;8.57;;
20657;SDS011;10488;50.846;4.078;2023-06-19T04:20:37;10.82;;;8.10;;
20657;SDS011;10488;50.846;4.078;2023-06-19T04:23:02;11.43;;;9.40;;
20657;SDS011;10488;50.846;4.078;2023-06-19T04:25:28;14.35;;;9.68;;
20657;SDS011;10488;50.846;4.078;2023-06-19T04:27:53;13.63;;;10.40;;
20657;SDS011;10488;50.846;4.078;2023-06-19T04:30:19;13.23;;;10.00;;
20657;SDS011;10488;50.846;4.078;2023-06-19T04:32:46;16.27;;;11.38;;
20657;SDS011;10488;50.846;4.078;2023-06-19T04:35:12;13.77;;;11.00;;
20657;SDS011;10488;50.846;4.078;2023-06-19T04:37:37;16.17;;;11.43;;
20657;SDS011;10488;50.846;4.078;2023-06-19T04:40:03;18.95;;;11.57;;
20657;SDS011;10488;50.846;4.078;2023-06-19T04:42:30;16.55;;;11.48;;
20657;SDS011;10488;50.846;4.078;2023-06-19T04:44:56;16.23;;;12.30;;
20657;SDS011;10488;50.846;4.078;2023-06-19T04:47:24;18.00;;;12.88;;
20657;SDS011;10488;50.846;4.078;2023-06-19T04:49:49;19.50;;;12.07;;
20657;SDS011;10488;50.846;4.078;2023-06-19T04:52:15;16.83;;;12.48;;
20657;SDS011;10488;50.846;4.078;2023-06-19T04:54:40;18.63;;;12.43;;
20657;SDS011;10488;50.846;4.078;2023-06-19T04:57:06;17.88;;;13.05;;
20657;SDS011;10488;50.846;4.078;2023-06-19T04:59:32;16.20;;;13.10;;
20657;SDS011;10488;50.846;4.078;2023-06-19T05:01:58;22.95;;;13.10;;
20657;SDS011;10488;50.846;4.078;2023-06-19T05:04:24;16.25;;;13.13;;
20657;SDS011;10488;50.846;4.078;2023-06-19T05:06:50;18.05;;;13.20;;
20657;SDS011;10488;50.846;4.078;2023-06-19T05:09:16;18.65;;;13.98;;
20657;SDS011;10488;50.846;4.078;2023-06-19T05:11:42;17.20;;;13.35;;
20657;SDS011;10488;50.846;4.078;2023-06-19T05:14:07;16.98;;;14.23;;
20657;SDS011;10488;50.846;4.078;2023-06-19T05:16:33;17.13;;;13.25;;
20657;SDS011;10488;50.846;4.078;2023-06-19T05:18:59;20.92;;;13.85;;
20657;SDS011;10488;50.846;4.078;2023-06-19T05:21:25;21.83;;;13.73;;
20657;SDS011;10488;50.846;4.078;2023-06-19T05:23:51;22.70;;;13.88;;
20657;SDS011;10488;50.846;4.078;2023-06-19T05:26:18;22.15;;;14.00;;
20657;SDS011;10488;50.846;4.078;2023-06-19T05:28:48;16.83;;;14.02;;
20657;SDS011;10488;50.846;4.078;2023-06-19T05:31:14;18.33;;;14.05;;
20657;SDS011;10488;50.846;4.078;2023-06-19T05:33:40;18.05;;;14.18;;
20657;SDS011;10488;50.846;4.078;2023-06-19T05:36:06;18.73;;;13.88;;
20657;SDS011;10488;50.846;4.078;2023-06-19T05:38:32;16.80;;;14.27;;
20657;SDS011;10488;50.846;4.078;2023-06-19T05:40:58;16.25;;;13.30;;
20657;SDS011;10488;50.846;4.078;2023-06-19T05:43:24;17.65;;;12.85;;
20657;SDS011;10488;50.846;4.078;2023-06-19T05:45:50;18.52;;;14.05;;
20657;SDS011;10488;50.846;4.078;2023-06-19T05:48:17;17.73;;;13.35;;
20657;SDS011;10488;50.846;4.078;2023-06-19T05:50:42;17.73;;;14.75;;
20657;SDS011;10488;50.846;4.078;2023-06-19T05:53:08;21.08;;;14.23;;
20657;SDS011;10488;50.846;4.078;2023-06-19T05:55:33;20.00;;;13.88;;
20657;SDS011;10488;50.846;4.078;2023-06-19T05:57:59;18.02;;;13.65;;
20657;SDS011;10488;50.846;4.078;2023-06-19T06:00:25;15.77;;;12.77;;
20657;SDS011;10488;50.846;4.078;2023-06-19T06:02:52;18.73;;;13.40;;
20657;SDS011;10488;50.846;4.078;2023-06-19T06:05:18;16.85;;;13.23;;
20657;SDS011;10488;50.846;4.078;2023-06-19T06:07:45;17.95;;;13.57;;
20657;SDS011;10488;50.846;4.078;2023-06-19T06:10:11;15.82;;;13.02;;
20657;SDS011;10488;50.846;4.078;2023-06-19T06:12:37;23.70;;;13.30;;
20657;SDS011;10488;50.846;4.078;2023-06-19T06:15:03;17.17;;;12.43;;
20657;SDS011;10488;50.846;4.078;2023-06-19T06:17:30;17.38;;;12.32;;
20657;SDS011;10488;50.846;4.078;2023-06-19T06:19:56;15.38;;;11.65;;
20657;SDS011;10488;50.846;4.078;2023-06-19T06:22:22;16.77;;;12.07;;
20657;SDS011;10488;50.846;4.078;2023-06-19T06:24:47;19.88;;;12.73;;
20657;SDS011;10488;50.846;4.078;2023-06-19T06:27:13;14.63;;;11.57;;
20657;SDS011;10488;50.846;4.078;2023-06-19T06:29:39;16.20;;;12.85;;
20657;SDS011;10488;50.846;4.078;2023-06-19T06:32:05;15.88;;;12.30;;
20657;SDS011;10488;50.846;4.078;2023-06-19T06:34:32;18.20;;;11.95;;
20657;SDS011;10488;50.846;4.078;2023-06-19T06:36:59;19.23;;;11.65;;
20657;SDS011;10488;50.846;4.078;2023-06-19T06:39:25;15.63;;;12.32;;
20657;SDS011;10488;50.846;4.078;2023-06-19T06:41:51;14.45;;;11.35;;
20657;SDS011;10488;50.846;4.078;2023-06-19T06:44:17;17.75;;;11.85;;
20657;SDS011;10488;50.846;4.078;2023-06-19T06:46:42;16.38;;;11.43;;
20657;SDS011;10488;50.846;4.078;2023-06-19T06:49:08;17.05;;;13.02;;
20657;SDS011;10488;50.846;4.078;2023-06-19T06:51:34;14.57;;;12.18;;
20657;SDS011;10488;50.846;4.078;2023-06-19T06:53:59;20.17;;;13.20;;
20657;SDS011;10488;50.846;4.078;2023-06-19T06:56:25;17.60;;;13.88;;
20657;SDS011;10488;50.846;4.078;2023-06-19T06:58:51;19.40;;;14.13;;
20657;SDS011;10488;50.846;4.078;2023-06-19T07:01:17;16.85;;;13.65;;
20657;SDS011;10488;50.846;4.078;2023-06-19T07:03:42;18.40;;;12.07;;
20657;SDS011;10488;50.846;4.078;2023-06-19T07:06:08;13.60;;;9.88;;
20657;SDS011;10488;50.846;4.078;2023-06-19T07:08:34;14.25;;;9.88;;
20657;SDS011;10488;50.846;4.078;2023-06-19T07:10:59;16.90;;;9.82;;
20657;SDS011;10488;50.846;4.078;2023-06-19T07:13:25;20.73;;;11.27;;
20657;SDS011;10488;50.846;4.078;2023-06-19T07:15:51;15.73;;;11.68;;
20657;SDS011;10488;50.846;4.078;2023-06-19T07:18:16;14.88;;;11.27;;
20657;SDS011;10488;50.846;4.078;2023-06-19T07:20:42;16.60;;;11.75;;
20657;SDS011;10488;50.846;4.078;2023-06-19T07:23:08;19.23;;;11.43;;
20657;SDS011;10488;50.846;4.078;2023-06-19T07:25:35;20.77;;;14.27;;
20657;SDS011;10488;50.846;4.078;2023-06-19T07:28:01;20.35;;;14.07;;
20657;SDS011;10488;50.846;4.078;2023-06-19T07:30:27;20.02;;;13.85;;
20657;SDS011;10488;50.846;4.078;2023-06-19T07:32:52;23.90;;;14.63;;
20657;SDS011;10488;50.846;4.078;2023-06-19T07:35:18;20.70;;;14.07;;
20657;SDS011;10488;50.846;4.078;2023-06-19T07:37:44;20.00;;;13.65;;
20657;SDS011;10488;50.846;4.078;2023-06-19T07:40:10;18.20;;;13.73;;
20657;SDS011;10488;50.846;4.078;2023-06-19T07:42:37;24.88;;;14.35;;
20657;SDS011;10488;50.846;4.078;2023-06-19T07:45:02;20.58;;;14.05;;
20657;SDS011;10488;50.846;4.078;2023-06-19T07:47:28;15.90;;;12.82;;
20657;SDS011;10488;50.846;4.078;2023-06-19T07:49:54;21.05;;;13.65;;
20657;SDS011;10488;50.846;4.078;2023-06-19T07:52:20;17.77;;;14.57;;
20657;SDS011;10488;50.846;4.078;2023-06-19T07:54:52;17.38;;;12.90;;
20657;SDS011;10488;50.846;4.078;2023-06-19T07:57:22;18.02;;;12.82;;
20657;SDS011;10488;50.846;4.078;2023-06-19T07:59:49;16.40;;;12.00;;
20657;SDS011;10488;50.846;4.078;2023-06-19T08:02:15;14.77;;;11.60;;
20657;SDS011;10488;50.846;4.078;2023-06-19T08:04:41;12.75;;;10.05;;
20657;SDS011;10488;50.846;4.078;2023-06-19T08:07:07;12.98;;;10.82;;
20657;SDS011;10488;50.846;4.078;2023-06-19T08:09:32;15.95;;;11.57;;
20657;SDS011;10488;50.846;4.078;2023-06-19T08:11:58;15.82;;;11.45;;
20657;SDS011;10488;50.846;4.078;2023-06-19T08:14:24;13.57;;;10.70;;
20657;SDS011;10488;50.846;4.078;2023-06-19T08:16:50;16.20;;;10.75;;
20657;SDS011;10488;50.846;4.078;2023-06-19T08:19:15;11.73;;;10.52;;
20657;SDS011;10488;50.846;4.078;2023-06-19T08:21:41;14.80;;;11.70;;
20657;SDS011;10488;50.846;4.078;2023-06-19T08:24:06;12.82;;;10.50;;
20657;SDS011;10488;50.846;4.078;2023-06-19T08:26:32;15.63;;;10.18;;
20657;SDS011;10488;50.846;4.078;2023-06-19T08:28:58;14.73;;;10.00;;
20657;SDS011;10488;50.846;4.078;2023-06-19T08:31:23;13.55;;;10.27;;
20657;SDS011;10488;50.846;4.078;2023-06-19T08:33:55;12.70;;;10.77;;
20657;SDS011;10488;50.846;4.078;2023-06-19T08:36:21;14.30;;;9.55;;
20657;SDS011;10488;50.846;4.078;2023-06-19T08:38:47;11.70;;;9.52;;
20657;SDS011;10488;50.846;4.078;2023-06-19T08:41:15;10.68;;;8.55;;
20657;SDS011;10488;50.846;4.078;2023-06-19T08:43:44;14.38;;;9.60;;
20657;SDS011;10488;50.846;4.078;2023-06-19T08:46:11;10.27;;;7.60;;
20657;SDS011;10488;50.846;4.078;2023-06-19T08:48:42;14.90;;;9.40;;
20657;SDS011;10488;50.846;4.078;2023-06-19T08:51:09;15.48;;;8.68;;
20657;SDS011;10488;50.846;4.078;2023-06-19T08:53:44;13.65;;;8.20;;
20657;SDS011;10488;50.846;4.078;2023-06-19T08:56:11;16.70;;;8.55;;
20657;SDS011;10488;50.846;4.078;2023-06-19T08:58:36;12.15;;;8.07;;
20657;SDS011;10488;50.846;4.078;2023-06-19T09:01:02;13.25;;;8.63;;
20657;SDS011;10488;50.846;4.078;2023-06-19T09:03:28;15.07;;;8.45;;
20657;SDS011;10488;50.846;4.078;2023-06-19T09:05:54;11.40;;;7.32;;
20657;SDS011;10488;50.846;4.078;2023-06-19T09:08:20;10.23;;;7.43;;
20657;SDS011;10488;50.846;4.078;2023-06-19T09:10:57;12.52;;;7.63;;
20657;SDS011;10488;50.846;4.078;2023-06-19T09:13:29;11.35;;;7.38;;
20657;SDS011;10488;50.846;4.078;2023-06-19T09:16:14;10.65;;;7.55;;
20657;SDS011;10488;50.846;4.078;2023-06-19T09:18:46;9.57;;;6.35;;
20657;SDS011;10488;50.846;4.078;2023-06-19T09:21:17;10.73;;;7.95;;
20657;SDS011;10488;50.846;4.078;2023-06-19T09:23:50;13.35;;;7.25;;
20657;SDS011;10488;50.846;4.078;2023-06-19T09:26:19;11.80;;;8.02;;
20657;SDS011;10488;50.846;4.078;2023-06-19T09:28:45;14.88;;;8.13;;
20657;SDS011;10488;50.846;4.078;2023-06-19T09:31:12;13.88;;;8.93;;
20657;SDS011;10488;50.846;4.078;2023-06-19T09:33:38;10.32;;;8.40;;
20657;SDS011;10488;50.846;4.078;2023-06-19T09:36:05;12.35;;;8.88;;
20657;SDS011;10488;50.846;4.078;2023-06-19T09:38:40;15.93;;;9.82;;
20657;SDS011;10488;50.846;4.078;2023-06-19T09:41:06;13.93;;;8.63;;
20657;SDS011;10488;50.846;4.078;2023-06-19T09:43:43;16.50;;;9.70;;
20657;SDS011;10488;50.846;4.078;2023-06-19T09:46:11;13.20;;;7.72;;
20657;SDS011;10488;50.846;4.078;2023-06-19T09:48:42;12.07;;;9.05;;
20657;SDS011;10488;50.846;4.078;2023-06-19T09:51:23;12.35;;;9.05;;
20657;SDS011;10488;50.846;4.078;2023-06-19T09:54:00;11.20;;;8.55;;
20657;SDS011;10488;50.846;4.078;2023-06-19T09:56:28;17.30;;;9.50;;
20657;SDS011;10488;50.846;4.078;2023-06-19T09:58:55;16.10;;;9.13;;
20657;SDS011;10488;50.846;4.078;2023-06-19T10:01:25;11.80;;;8.27;;
20657;SDS011;10488;50.846;4.078;2023-06-19T10:04:01;15.13;;;9.18;;
20657;SDS011;10488;50.846;4.078;2023-06-19T10:06:30;11.63;;;7.63;;
20657;SDS011;10488;50.846;4.078;2023-06-19T10:09:04;12.90;;;7.95;;
20657;SDS011;10488;50.846;4.078;2023-06-19T10:11:45;10.68;;;7.30;;
20657;SDS011;10488;50.846;4.078;2023-06-19T10:14:11;10.25;;;7.18;;
20657;SDS011;10488;50.846;4.078;2023-06-19T10:16:37;12.50;;;8.73;;
20657;SDS011;10488;50.846;4.078;2023-06-19T10:19:11;12.93;;;8.43;;
20657;SDS011;10488;50.846;4.078;2023-06-19T10:21:48;13.48;;;8.45;;
20657;SDS011;10488;50.846;4.078;2023-06-19T10:24:16;11.10;;;8.02;;
20657;SDS011;10488;50.846;4.078;2023-06-19T10:26:43;14.75;;;7.18;;
20657;SDS011;10488;50.846;4.078;2023-06-19T10:29:20;13.80;;;6.97;;
20657;SDS011;10488;50.846;4.078;2023-06-19T10:31:45;10.20;;;6.95;;
20657;SDS011;10488;50.846;4.078;2023-06-19T10:34:11;8.75;;;5.50;;
20657;SDS011;10488;50.846;4.078;2023-06-19T10:36:37;10.02;;;6.53;;
20657;SDS011;10488;50.846;4.078;2023-06-19T10:39:03;10.45;;;6.28;;
20657;SDS011;10488;50.846;4.078;2023-06-19T10:41:29;10.13;;;7.05;;
20657;SDS011;10488;50.846;4.078;2023-06-19T10:44:04;10.25;;;6.38;;
20657;SDS011;10488;50.846;4.078;2023-06-19T10:46:32;9.43;;;5.75;;
20657;SDS011;10488;50.846;4.078;2023-06-19T10:49:01;11.27;;;6.78;;
20657;SDS011;10488;50.846;4.078;2023-06-19T10:51:29;10.10;;;6.53;;
20657;SDS011;10488;50.846;4.078;2023-06-19T10:53:55;8.85;;;6.25;;
20657;SDS011;10488;50.846;4.078;2023-06-19T10:56:22;10.02;;;6.22;;
20657;SDS011;10488;50.846;4.078;2023-06-19T10:58:56;13.07;;;7.78;;
20657;SDS011;10488;50.846;4.078;2023-06-19T11:01:36;10.60;;;8.13;;
20657;SDS011;10488;50.846;4.078;2023-06-19T11:04:04;11.00;;;6.55;;
20657;SDS011;10488;50.846;4.078;2023-06-19T11:06:37;13.88;;;7.28;;
20657;SDS011;10488;50.846;4.078;2023-06-19T11:09:04;10.55;;;6.50;;
20657;SDS011;10488;50.846;4.078;2023-06-19T11:11:42;9.20;;;7.03;;
20657;SDS011;10488;50.846;4.078;2023-06-19T11:14:08;13.68;;;8.18;;
20657;SDS011;10488;50.846;4.078;2023-06-19T11:16:37;13.00;;;9.27;;
20657;SDS011;10488;50.846;4.078;2023-06-19T11:19:05;13.88;;;8.13;;
20657;SDS011;10488;50.846;4.078;2023-06-19T11:21:33;16.48;;;8.93;;
20657;SDS011;10488;50.846;4.078;2023-06-19T11:24:02;16.13;;;9.93;;
20657;SDS011;10488;50.846;4.078;2023-06-19T11:26:28;12.57;;;8.25;;
20657;SDS011;10488;50.846;4.078;2023-06-19T11:28:53;9.35;;;7.75;;
20657;SDS011;10488;50.846;4.078;2023-06-19T11:31:26;12.25;;;7.63;;
20657;SDS011;10488;50.846;4.078;2023-06-19T11:34:01;14.30;;;7.30;;
20657;SDS011;10488;50.846;4.078;2023-06-19T11:36:27;18.85;;;7.32;;
20657;SDS011;10488;50.846;4.078;2023-06-19T11:38:54;12.73;;;8.35;;
20657;SDS011;10488;50.846;4.078;2023-06-19T11:41:27;12.43;;;6.60;;
20657;SDS011;10488;50.846;4.078;2023-06-19T11:44:03;9.77;;;6.70;;
20657;SDS011;10488;50.846;4.078;2023-06-19T11:46:30;11.13;;;7.78;;
20657;SDS011;10488;50.846;4.078;2023-06-19T11:49:13;12.52;;;7.35;;
20657;SDS011;10488;50.846;4.078;2023-06-19T11:51:45;8.90;;;6.38;;
20657;SDS011;10488;50.846;4.078;2023-06-19T11:54:11;10.30;;;5.80;;
20657;SDS011;10488;50.846;4.078;2023-06-19T11:56:40;16.42;;;7.03;;
20657;SDS011;10488;50.846;4.078;2023-06-19T11:59:06;8.13;;;6.70;;
20657;SDS011;10488;50.846;4.078;2023-06-19T12:01:33;11.77;;;6.53;;
20657;SDS011;10488;50.846;4.078;2023-06-19T12:03:59;9.55;;;6.90;;
20657;SDS011;10488;50.846;4.078;2023-06-19T12:06:26;10.90;;;7.00;;
20657;SDS011;10488;50.846;4.078;2023-06-19T12:08:52;10.35;;;6.50;;
20657;SDS011;10488;50.846;4.078;2023-06-19T12:11:18;9.75;;;6.30;;
20657;SDS011;10488;50.846;4.078;2023-06-19T12:13:44;11.52;;;7.15;;
20657;SDS011;10488;50.846;4.078;2023-06-19T12:16:10;9.68;;;6.63;;
20657;SDS011;10488;50.846;4.078;2023-06-19T12:18:36;10.68;;;6.20;;
20657;SDS011;10488;50.846;4.078;2023-06-19T12:21:02;10.13;;;6.38;;
20657;SDS011;10488;50.846;4.078;2023-06-19T12:23:28;11.23;;;7.15;;
20657;SDS011;10488;50.846;4.078;2023-06-19T12:25:54;8.52;;;5.88;;
20657;SDS011;10488;50.846;4.078;2023-06-19T12:28:20;7.45;;;5.55;;
20657;SDS011;10488;50.846;4.078;2023-06-19T12:30:46;9.02;;;5.07;;
20657;SDS011;10488;50.846;4.078;2023-06-19T12:33:15;6.32;;;5.47;;
20657;SDS011;10488;50.846;4.078;2023-06-19T12:35:40;7.00;;;5.15;;
20657;SDS011;10488;50.846;4.078;2023-06-19T12:38:07;8.63;;;5.25;;
20657;SDS011;10488;50.846;4.078;2023-06-19T12:40:33;8.75;;;5.65;;
20657;SDS011;10488;50.846;4.078;2023-06-19T12:42:59;6.60;;;5.05;;
20657;SDS011;10488;50.846;4.078;2023-06-19T12:45:24;8.70;;;6.03;;
20657;SDS011;10488;50.846;4.078;2023-06-19T12:47:50;8.73;;;5.68;;
20657;SDS011;10488;50.846;4.078;2023-06-19T12:50:15;8.32;;;5.30;;
20657;SDS011;10488;50.846;4.078;2023-06-19T12:52:41;7.45;;;5.93;;
20657;SDS011;10488;50.846;4.078;2023-06-19T12:55:07;10.90;;;5.47;;
20657;SDS011;10488;50.846;4.078;2023-06-19T12:57:33;9.80;;;5.68;;
20657;SDS011;10488;50.846;4.078;2023-06-19T12:59:59;13.25;;;5.50;;
20657;SDS011;10488;50.846;4.078;2023-06-19T13:02:24;9.52;;;5.35;;
20657;SDS011;10488;50.846;4.078;2023-06-19T13:04:50;7.60;;;5.00;;
20657;SDS011;10488;50.846;4.078;2023-06-19T13:07:16;8.20;;;5.25;;
20657;SDS011;10488;50.846;4.078;2023-06-19T13:09:42;7.00;;;5.13;;
20657;SDS011;10488;50.846;4.078;2023-06-19T13:12:08;5.88;;;4.90;;
20657;SDS011;10488;50.846;4.078;2023-06-19T13:14:34;12.60;;;5.15;;
20657;SDS011;10488;50.846;4.078;2023-06-19T13:17:00;8.30;;;5.70;;
20657;SDS011;10488;50.846;4.078;2023-06-19T13:19:26;7.78;;;4.80;;
20657;SDS011;10488;50.846;4.078;2023-06-19T13:21:52;9.60;;;5.05;;
20657;SDS011;10488;50.846;4.078;2023-06-19T13:24:18;9.60;;;5.10;;
20657;SDS011;10488;50.846;4.078;2023-06-19T13:26:43;7.80;;;5.20;;
20657;SDS011;10488;50.846;4.078;2023-06-19T13:29:10;7.75;;;5.30;;
20657;SDS011;10488;50.846;4.078;2023-06-19T13:31:36;9.68;;;4.95;;
20657;SDS011;10488;50.846;4.078;2023-06-19T13:34:02;6.35;;;4.95;;
20657;SDS011;10488;50.846;4.078;2023-06-19T13:36:29;7.28;;;4.82;;
20657;SDS011;10488;50.846;4.078;2023-06-19T13:38:55;7.95;;;5.18;;
20657;SDS011;10488;50.846;4.078;2023-06-19T13:41:20;8.70;;;5.50;;
20657;SDS011;10488;50.846;4.078;2023-06-19T13:43:49;7.90;;;5.18;;
20657;SDS011;10488;50.846;4.078;2023-06-19T13:46:15;8.90;;;5.22;;
20657;SDS011;10488;50.846;4.078;2023-06-19T13:48:41;8.98;;;4.38;;
20657;SDS011;10488;50.846;4.078;2023-06-19T13:51:07;5.45;;;4.45;;
20657;SDS011;10488;50.846;4.078;2023-06-19T13:53:33;8.27;;;4.15;;
20657;SDS011;10488;50.846;4.078;2023-06-19T13:55:58;8.98;;;5.10;;
20657;SDS011;10488;50.846;4.078;2023-06-19T13:58:24;9.98;;;4.78;;
20657;SDS011;10488;50.846;4.078;2023-06-19T14:00:50;12.23;;;5.30;;
20657;SDS011;10488;50.846;4.078;2023-06-19T14:03:16;8.60;;;5.05;;
20657;SDS011;10488;50.846;4.078;2023-06-19T14:05:41;7.13;;;4.75;;
20657;SDS011;10488;50.846;4.078;2023-06-19T14:08:08;7.13;;;4.63;;
20657;SDS011;10488;50.846;4.078;2023-06-19T14:10:34;8.02;;;5.07;;
20657;SDS011;10488;50.846;4.078;2023-06-19T14:13:00;8.00;;;4.65;;
20657;SDS011;10488;50.846;4.078;2023-06-19T14:15:26;6.78;;;4.95;;
20657;SDS011;10488;50.846;4.078;2023-06-19T14:17:51;6.18;;;4.78;;
20657;SDS011;10488;50.846;4.078;2023-06-19T14:20:17;8.88;;;5.22;;
20657;SDS011;10488;50.846;4.078;2023-06-19T14:22:43;10.65;;;4.57;;
20657;SDS011;10488;50.846;4.078;2023-06-19T14:25:09;7.18;;;4.57;;
20657;SDS011;10488;50.846;4.078;2023-06-19T14:27:34;9.20;;;5.15;;
20657;SDS011;10488;50.846;4.078;2023-06-19T14:30:00;9.68;;;3.92;;
20657;SDS011;10488;50.846;4.078;2023-06-19T14:32:26;7.30;;;4.53;;
20657;SDS011;10488;50.846;4.078;2023-06-19T14:34:51;13.02;;;4.68;;